Time;durP1;ratioP1;P1;durP2;ratioP2;P2;SDS_P1;SDS_P2;PMS_P1;PMS_P2;Temp;Humidity;BMP_temperature;BMP_pressure;BME280_temperature;BME280_humidity;BME280_pressure;Samples;Min_cycle;Max_cycle;Signal;HPM_P1;HPM_P2
2022/12/31 00:05:21;;;;;;;;;;;;;;;;;;;;;
2022/12/31 00:20:12;;;;;;;0.77;0.77;;;15.20;99.90;;;;;;6053121;23;20389;-87
2022/12/31 00:27:44;;;;;;;1.63;0.80;;;15.30;99.90;;;;;;6146026;23;20390;-87
2022/12/31 00:31:06;;;;;;;;;;;;;;;;;;;;;
2022/12/31 00:34:39;;;;;;;0.60;0.60;;;15.30;99.90;;;;;;6007097;23;20436;-88
2022/12/31 00:47:43;;;;;;;1.43;0.63;;;15.30;99.90;;;;;;6185370;23;20395;-86
2022/12/31 00:50:21;;;;;;;0.63;0.60;;;15.30;99.90;;;;;;6185980;23;20390;-87
2022/12/31 00:53:28;;;;;;;1.00;0.70;;;15.50;99.90;;;;;;6146436;23;20419;-87
2022/12/31 00:57:31;;;;;;;0.97;0.77;;;15.50;99.90;;;;;;6161107;23;20893;-87
2022/12/31 01:00:05;;;;;;;;;;;;;;;;;;;;;
2022/12/31 01:03:03;;;;;;;0.60;0.40;;;15.50;99.90;;;;;;6055026;23;20409;-87
2022/12/31 01:05:50;;;;;;;0.50;0.50;;;15.60;99.90;;;;;;6016961;23;20441;-87
2022/12/31 01:08:24;;;;;;;0.50;0.50;;;15.70;99.90;;;;;;6054082;23;20414;-89
2022/12/31 01:11:17;;;;;;;0.50;0.40;;;15.50;99.90;;;;;;6055324;23;20857;-87
2022/12/31 01:13:48;;;;;;;0.40;0.40;;;15.40;99.90;;;;;;6054346;23;20507;-88
2022/12/31 01:16:22;;;;;;;0.70;0.40;;;15.70;99.90;;;;;;6055662;23;20914;-86
2022/12/31 01:18:50;;;;;;;0.57;0.50;;;15.80;99.90;;;;;;6168683;23;20994;-87
2022/12/31 01:21:22;;;;;;;0.50;0.50;;;16.00;99.90;;;;;;6151349;23;20457;-89
2022/12/31 01:24:01;;;;;;;0.60;0.50;;;15.90;99.90;;;;;;6175283;23;20434;-88
2022/12/31 01:26:42;;;;;;;0.50;0.50;;;16.00;99.90;;;;;;6176293;23;20492;-86
2022/12/31 01:29:22;;;;;;;0.60;0.40;;;16.00;99.90;;;;;;6151965;23;20406;-87
2022/12/31 01:32:07;;;;;;;0.50;0.33;;;16.10;99.90;;;;;;6173031;23;20449;-88
2022/12/31 01:34:41;;;;;;;0.40;0.30;;;16.20;99.90;;;;;;6173392;23;20429;-86
2022/12/31 01:37:10;;;;;;;0.30;0.30;;;16.20;99.90;;;;;;6171812;23;20878;-86
2022/12/31 01:39:47;;;;;;;0.43;0.40;;;16.20;99.90;;;;;;6171976;23;20456;-87
2022/12/31 01:42:17;;;;;;;0.50;0.40;;;16.20;99.90;;;;;;6146600;23;20418;-87
2022/12/31 01:44:50;;;;;;;0.50;0.40;;;16.20;99.90;;;;;;6175045;23;20477;-87
2022/12/31 01:47:45;;;;;;;0.40;0.30;;;16.20;99.90;;;;;;6148007;23;20405;-87
2022/12/31 01:50:37;;;;;;;0.50;0.40;;;16.30;99.90;;;;;;6148780;23;20493;-86
2022/12/31 01:53:09;;;;;;;0.50;0.40;;;16.20;99.90;;;;;;6148363;23;20442;-86
2022/12/31 01:55:49;;;;;;;0.67;0.40;;;16.30;99.90;;;;;;6177439;23;20382;-86
2022/12/31 01:58:40;;;;;;;0.50;0.40;;;16.30;99.90;;;;;;6151015;23;20417;-87
2022/12/31 02:01:16;;;;;;;0.73;0.73;;;16.30;99.90;;;;;;6176029;23;20416;-87
2022/12/31 02:03:45;;;;;;;0.57;0.40;;;16.30;99.90;;;;;;6150569;23;20437;-87
2022/12/31 02:06:28;;;;;;;0.50;0.43;;;16.40;99.90;;;;;;6176291;23;20394;-88
2022/12/31 02:09:00;;;;;;;0.87;0.40;;;16.30;99.90;;;;;;6175045;23;20420;-87
2022/12/31 02:11:31;;;;;;;0.40;0.40;;;16.40;99.90;;;;;;6175505;23;20537;-86
2022/12/31 02:14:03;;;;;;;0.50;0.40;;;16.40;99.90;;;;;;6175740;23;20433;-88
2022/12/31 02:16:57;;;;;;;0.50;0.40;;;16.30;99.90;;;;;;6149909;23;20492;-87
2022/12/31 02:20:13;;;;;;;0.40;0.40;;;16.30;99.90;;;;;;6177148;23;20776;-87
2022/12/31 02:22:46;;;;;;;1.37;0.30;;;16.40;99.90;;;;;;6176484;23;20430;-87
2022/12/31 02:25:51;;;;;;;0.40;0.30;;;16.40;99.90;;;;;;6149173;23;20501;-87
2022/12/31 02:28:33;;;;;;;0.40;0.30;;;16.50;99.90;;;;;;6149900;23;20414;-89
2022/12/31 02:31:13;;;;;;;0.40;0.30;;;16.50;99.90;;;;;;6149430;23;20913;-87
2022/12/31 02:34:10;;;;;;;0.30;0.30;;;16.50;99.90;;;;;;6152734;23;20426;-86
2022/12/31 02:36:41;;;;;;;0.30;0.30;;;16.50;99.90;;;;;;6151981;23;20449;-87
2022/12/31 02:39:10;;;;;;;0.30;0.30;;;16.60;99.90;;;;;;6152202;23;20414;-87
2022/12/31 02:41:50;;;;;;;0.40;0.40;;;16.70;99.90;;;;;;6152632;23;20429;-86
2022/12/31 02:44:34;;;;;;;0.40;0.40;;;16.70;99.90;;;;;;6176046;23;21037;-88
2022/12/31 02:47:08;;;;;;;0.40;0.40;;;16.60;99.90;;;;;;6151081;23;20456;-87
2022/12/31 02:49:49;;;;;;;0.40;0.40;;;16.60;99.90;;;;;;6152732;23;20457;-86
2022/12/31 02:52:56;;;;;;;0.80;0.30;;;16.70;99.90;;;;;;6179367;23;20453;-87
2022/12/31 02:55:35;;;;;;;0.40;0.33;;;16.70;99.90;;;;;;6178144;23;20437;-88
2022/12/31 03:02:12;;;;;;;3.03;0.30;;;16.70;99.90;;;;;;6193841;23;20414;-89
2022/12/31 03:06:42;;;;;;;0.40;0.33;;;16.80;99.90;;;;;;6183440;23;21045;-89
2022/12/31 03:09:12;;;;;;;0.37;0.30;;;16.50;99.90;;;;;;6156434;23;20442;-86
2022/12/31 03:14:25;;;;;;;0.30;0.30;;;16.70;99.90;;;;;;6181774;23;21023;-86
2022/12/31 03:16:52;;;;;;;0.40;0.30;;;16.80;99.90;;;;;;6153746;23;20833;-88
2022/12/31 03:27:36;;;;;;;0.30;0.30;;;16.80;99.90;;;;;;6180705;23;20417;-87
2022/12/31 03:30:04;;;;;;;0.50;0.40;;;16.80;99.90;;;;;;6167591;23;20425;-89
2022/12/31 03:32:30;;;;;;;0.37;0.30;;;16.60;99.90;;;;;;6160176;23;20453;-86
2022/12/31 03:35:02;;;;;;;0.30;0.30;;;16.70;99.90;;;;;;6148866;23;20434;-86
2022/12/31 03:37:34;;;;;;;1.33;0.30;;;16.80;99.90;;;;;;6149983;23;20402;-86
2022/12/31 03:40:33;;;;;;;;;;;;;;;;;;;;;
2022/12/31 03:43:10;;;;;;;0.30;0.30;;;16.70;99.90;;;;;;6176238;23;20438;-86
2022/12/31 03:45:40;;;;;;;0.50;0.30;;;16.90;99.90;;;;;;6150218;23;20400;-86
2022/12/31 03:48:14;;;;;;;0.40;0.40;;;16.90;99.90;;;;;;6175821;23;20420;-87
2022/12/31 03:50:44;;;;;;;0.40;0.30;;;16.60;99.90;;;;;;6152063;23;20397;-89
2022/12/31 03:53:15;;;;;;;0.90;0.30;;;16.90;99.90;;;;;;6150948;23;20446;-88
2022/12/31 03:55:42;;;;;;;0.30;0.30;;;17.00;99.90;;;;;;6178519;23;20484;-87
2022/12/31 03:58:12;;;;;;;0.80;0.30;;;16.90;99.90;;;;;;6152779;23;20418;-88
2022/12/31 04:00:44;;;;;;;0.30;0.30;;;17.00;99.90;;;;;;6153859;23;20406;-87
2022/12/31 04:03:16;;;;;;;0.40;0.30;;;17.00;99.90;;;;;;6178042;23;20454;-88
2022/12/31 04:05:57;;;;;;;0.50;0.33;;;16.90;99.90;;;;;;6164716;23;20661;-90
2022/12/31 04:08:37;;;;;;;1.07;0.40;;;16.60;99.90;;;;;;6200224;23;20394;-88
2022/12/31 04:11:07;;;;;;;0.30;0.30;;;16.80;99.90;;;;;;6199208;23;20414;-88
2022/12/31 04:13:50;;;;;;;0.40;0.30;;;16.80;99.90;;;;;;6174602;23;20429;-89
2022/12/31 04:16:23;;;;;;;0.50;0.30;;;17.00;99.90;;;;;;6170509;23;20462;-87
2022/12/31 04:18:53;;;;;;;0.30;0.30;;;17.10;99.90;;;;;;6151880;23;20420;-85
2022/12/31 04:21:25;;;;;;;0.40;0.30;;;17.10;99.90;;;;;;6176376;23;20448;-88
2022/12/31 04:24:01;;;;;;;0.40;0.30;;;17.00;99.90;;;;;;6176256;23;20433;-86
2022/12/31 04:26:29;;;;;;;0.40;0.30;;;17.10;99.90;;;;;;6175741;23;20402;-84
2022/12/31 04:28:56;;;;;;;1.00;0.33;;;17.10;99.90;;;;;;6148893;23;20450;-86
2022/12/31 04:31:23;;;;;;;0.40;0.40;;;17.10;99.90;;;;;;6174938;23;20409;-86
2022/12/31 04:33:50;;;;;;;0.50;0.30;;;17.00;99.90;;;;;;6146766;23;20438;-88
2022/12/31 04:36:21;;;;;;;0.40;0.30;;;16.70;99.90;;;;;;6151878;23;20406;-85
2022/12/31 04:38:49;;;;;;;0.40;0.40;;;16.70;99.90;;;;;;6148960;23;21304;-85
2022/12/31 04:41:26;;;;;;;0.40;0.30;;;16.90;99.90;;;;;;6150314;23;20423;-86
2022/12/31 04:43:56;;;;;;;0.40;0.30;;;17.00;99.90;;;;;;6148394;23;20523;-87
2022/12/31 04:46:32;;;;;;;1.93;0.40;;;16.80;99.90;;;;;;6149445;23;20418;-87
2022/12/31 04:49:03;;;;;;;0.73;0.30;;;17.10;99.90;;;;;;6177753;23;20406;-86
2022/12/31 04:51:32;;;;;;;0.40;0.30;;;17.10;99.90;;;;;;6175829;23;20480;-87
2022/12/31 04:54:00;;;;;;;0.60;0.40;;;17.30;99.90;;;;;;6149177;23;20430;-86
2022/12/31 04:56:35;;;;;;;0.90;0.50;;;17.40;99.90;;;;;;6149278;23;21378;-86
2022/12/31 04:59:04;;;;;;;0.40;0.40;;;17.30;99.90;;;;;;6168781;23;20406;-87
2022/12/31 05:01:32;;;;;;;0.83;0.40;;;17.40;99.90;;;;;;6200430;23;20406;-87
2022/12/31 05:04:02;;;;;;;2.60;0.40;;;17.40;99.90;;;;;;6157886;23;20453;-87
2022/12/31 05:06:32;;;;;;;1.67;0.33;;;17.20;99.90;;;;;;6152782;23;20418;-89
2022/12/31 05:09:01;;;;;;;0.50;0.50;;;17.20;99.90;;;;;;6151363;23;20474;-89
2022/12/31 05:11:50;;;;;;;0.40;0.40;;;17.20;99.90;;;;;;6153426;23;20413;-85
2022/12/31 05:14:33;;;;;;;0.70;0.50;;;17.20;99.90;;;;;;6152362;23;20481;-84
2022/12/31 05:17:12;;;;;;;0.60;0.40;;;17.40;99.90;;;;;;6194131;23;20401;-89
2022/12/31 05:19:51;;;;;;;0.67;0.40;;;17.50;99.90;;;;;;6204948;23;20398;-87
2022/12/31 05:22:31;;;;;;;0.40;0.40;;;17.60;99.90;;;;;;6181275;23;20394;-87
2022/12/31 05:25:07;;;;;;;0.83;0.50;;;17.60;99.90;;;;;;6182455;23;20425;-89
2022/12/31 05:27:38;;;;;;;3.53;0.50;;;17.40;99.90;;;;;;6180542;23;20366;-85
2022/12/31 05:30:17;;;;;;;1.43;1.23;;;17.10;99.90;;;;;;6197542;23;20394;-87
2022/12/31 05:32:50;;;;;;;0.83;0.57;;;16.90;99.90;;;;;;6179945;23;20429;-88
2022/12/31 05:35:35;;;;;;;0.80;0.60;;;17.10;99.90;;;;;;6181795;23;20414;-89
2022/12/31 05:38:09;;;;;;;1.33;0.60;;;17.40;99.90;;;;;;6205134;23;20406;-87
2022/12/31 05:40:35;;;;;;;2.10;0.63;;;17.40;99.90;;;;;;6179846;23;20413;-87
2022/12/31 05:43:08;;;;;;;0.97;0.70;;;17.10;99.90;;;;;;6205601;23;20429;-87
2022/12/31 05:45:39;;;;;;;0.90;0.50;;;17.20;99.90;;;;;;6181754;23;20444;-87
2022/12/31 05:48:10;;;;;;;0.50;0.50;;;17.60;99.90;;;;;;6175986;23;20418;-87
2022/12/31 05:50:58;;;;;;;3.13;0.90;;;17.80;99.90;;;;;;6163462;23;20505;-86
2022/12/31 05:53:37;;;;;;;0.67;0.40;;;17.70;99.90;;;;;;6163954;23;20445;-88
2022/12/31 05:56:09;;;;;;;0.43;0.37;;;17.50;99.90;;;;;;6178939;23;20386;-88
2022/12/31 05:58:36;;;;;;;1.17;0.50;;;17.60;99.90;;;;;;6172599;23;20504;-86
2022/12/31 06:01:05;;;;;;;0.80;0.40;;;17.40;99.90;;;;;;6154342;23;20417;-85
2022/12/31 06:03:35;;;;;;;0.50;0.50;;;17.70;99.90;;;;;;6180374;23;20464;-85
2022/12/31 06:06:04;;;;;;;0.83;0.53;;;17.80;99.90;;;;;;6153923;23;20440;-85
2022/12/31 06:08:39;;;;;;;2.00;0.50;;;17.90;99.90;;;;;;6179982;23;20699;-86
2022/12/31 06:11:10;;;;;;;0.90;0.53;;;17.80;99.90;;;;;;6177757;23;20448;-87
2022/12/31 06:13:37;;;;;;;0.70;0.60;;;17.80;99.90;;;;;;6156638;23;20564;-84
2022/12/31 06:16:11;;;;;;;1.23;0.47;;;17.80;99.90;;;;;;6191798;23;20406;-87
2022/12/31 06:18:45;;;;;;;0.60;0.60;;;17.90;99.90;;;;;;6159651;23;20468;-87
2022/12/31 06:21:23;;;;;;;0.67;0.40;;;17.80;99.90;;;;;;6154576;23;20413;-87
2022/12/31 06:23:58;;;;;;;1.37;0.53;;;17.50;99.90;;;;;;6180562;23;20521;-86
2022/12/31 06:27:05;;;;;;;1.60;0.50;;;17.50;99.90;;;;;;6123381;23;20422;-85
2022/12/31 06:29:44;;;;;;;0.60;0.50;;;17.60;99.90;;;;;;6158058;23;20414;-86
2022/12/31 06:32:35;;;;;;;0.60;0.50;;;17.80;99.90;;;;;;6155970;23;20445;-85
2022/12/31 06:35:10;;;;;;;1.03;0.60;;;17.70;99.90;;;;;;6152822;23;20468;-87
2022/12/31 06:37:37;;;;;;;0.60;0.50;;;17.80;99.90;;;;;;6154947;23;20857;-87
2022/12/31 06:40:14;;;;;;;0.83;0.73;;;17.90;99.90;;;;;;6153327;23;21289;-84
2022/12/31 06:42:44;;;;;;;1.03;0.40;;;17.80;99.90;;;;;;6179347;23;20409;-85
2022/12/31 06:45:17;;;;;;;0.70;0.50;;;17.80;99.90;;;;;;6151940;23;20441;-86
2022/12/31 06:47:49;;;;;;;0.53;0.53;;;17.60;99.90;;;;;;6152465;23;20406;-86
2022/12/31 06:50:28;;;;;;;1.20;0.50;;;17.60;99.90;;;;;;6178381;23;20452;-86
2022/12/31 06:52:57;;;;;;;1.93;0.57;;;17.80;99.90;;;;;;6177068;23;20479;-84
2022/12/31 06:55:41;;;;;;;1.50;0.80;;;17.70;99.90;;;;;;6152503;23;20492;-84
2022/12/31 06:58:50;;;;;;;1.70;0.70;;;17.70;99.90;;;;;;6153635;23;20418;-87
2022/12/31 07:01:47;;;;;;;0.50;0.50;;;17.80;99.90;;;;;;6148050;23;20410;-86
2022/12/31 07:04:39;;;;;;;1.70;0.90;;;17.80;99.90;;;;;;6150261;23;20461;-88
2022/12/31 07:08:04;;;;;;;1.73;0.50;;;18.00;99.90;;;;;;6150051;23;20474;-85
2022/12/31 07:10:43;;;;;;;0.60;0.60;;;18.00;99.90;;;;;;6109025;23;20445;-88
2022/12/31 07:13:48;;;;;;;1.50;0.60;;;18.00;99.90;;;;;;6149241;23;20460;-87
2022/12/31 07:16:53;;;;;;;0.93;0.53;;;18.00;99.90;;;;;;6176892;23;20405;-87
2022/12/31 07:19:53;;;;;;;1.10;0.70;;;17.80;99.90;;;;;;6151926;23;20528;-86
2022/12/31 07:22:23;;;;;;;0.60;0.60;;;18.10;99.90;;;;;;6152230;23;20494;-86
2022/12/31 07:24:51;;;;;;;3.50;0.80;;;18.20;99.90;;;;;;6150077;23;20437;-87
2022/12/31 07:28:00;;;;;;;1.20;0.97;;;18.20;99.90;;;;;;6150840;23;20418;-86
2022/12/31 07:30:38;;;;;;;0.87;0.70;;;18.10;99.90;;;;;;6147035;23;20421;-84
2022/12/31 07:33:18;;;;;;;0.70;0.60;;;18.20;99.90;;;;;;6152148;23;20445;-86
2022/12/31 07:36:05;;;;;;;1.33;0.57;;;18.10;99.90;;;;;;6151723;23;20433;-87
2022/12/31 07:38:55;;;;;;;1.37;0.50;;;17.70;99.90;;;;;;6151644;23;20482;-86
2022/12/31 07:41:38;;;;;;;0.70;0.60;;;17.70;99.90;;;;;;6177811;23;20457;-87
2022/12/31 07:44:24;;;;;;;2.20;0.70;;;18.00;99.90;;;;;;6150863;23;20520;-88
2022/12/31 07:46:55;;;;;;;1.07;1.00;;;18.10;99.90;;;;;;6177218;23;20441;-87
2022/12/31 07:49:24;;;;;;;0.63;0.50;;;18.10;99.90;;;;;;6150670;23;20685;-88
2022/12/31 07:51:51;;;;;;;1.50;0.70;;;18.10;99.80;;;;;;6177444;23;20425;-87
2022/12/31 07:54:20;;;;;;;1.53;0.67;;;17.80;99.90;;;;;;6150887;23;20500;-88
2022/12/31 07:57:00;;;;;;;0.87;0.67;;;17.90;99.90;;;;;;6150190;23;20402;-87
2022/12/31 08:00:09;;;;;;;2.97;2.77;;;18.10;99.90;;;;;;6176451;23;20414;-88
2022/12/31 08:03:44;;;;;;;0.80;0.63;;;18.10;99.90;;;;;;6156172;23;20412;-87
2022/12/31 08:06:45;;;;;;;1.07;0.60;;;18.10;99.90;;;;;;6152282;23;20436;-88
2022/12/31 08:09:40;;;;;;;0.90;0.50;;;18.10;99.90;;;;;;6127995;23;20481;-85
2022/12/31 08:12:08;;;;;;;1.30;0.90;;;17.90;99.90;;;;;;6178424;23;21189;-85
2022/12/31 08:14:51;;;;;;;3.43;0.70;;;18.20;99.70;;;;;;6154299;23;21217;-88
2022/12/31 08:17:21;;;;;;;0.70;0.60;;;18.00;99.90;;;;;;6151060;23;20414;-84
2022/12/31 08:19:53;;;;;;;1.23;0.60;;;18.20;99.70;;;;;;6152929;23;20422;-87
2022/12/31 08:23:09;;;;;;;0.90;0.90;;;18.10;99.60;;;;;;6151918;23;20449;-88
2022/12/31 08:25:49;;;;;;;0.93;0.63;;;18.30;99.40;;;;;;6124933;23;20503;-87
2022/12/31 08:28:45;;;;;;;0.60;0.60;;;18.30;99.10;;;;;;6152677;23;20410;-87
2022/12/31 08:31:25;;;;;;;1.03;0.90;;;18.20;99.10;;;;;;6164720;23;20477;-89
2022/12/31 08:34:07;;;;;;;2.37;0.77;;;18.20;99.00;;;;;;6170419;23;20561;-87
2022/12/31 08:36:37;;;;;;;1.87;1.30;;;18.20;99.10;;;;;;6171375;23;20734;-90
2022/12/31 08:39:29;;;;;;;0.60;0.60;;;18.20;99.30;;;;;;6166043;23;20422;-85
2022/12/31 08:41:59;;;;;;;1.77;1.00;;;18.30;99.00;;;;;;6154862;23;20954;-86
2022/12/31 08:44:38;;;;;;;1.10;0.83;;;18.30;99.00;;;;;;6147837;23;20692;-85
2022/12/31 08:47:30;;;;;;;2.67;1.10;;;18.40;98.80;;;;;;6147955;23;20947;-85
2022/12/31 08:50:04;;;;;;;1.27;0.53;;;18.30;98.80;;;;;;6172254;23;20410;-85
2022/12/31 08:52:31;;;;;;;1.57;1.00;;;18.30;98.90;;;;;;6171178;23;20429;-82
2022/12/31 08:54:59;;;;;;;1.53;0.97;;;18.40;98.60;;;;;;6145538;23;20430;-86
2022/12/31 08:57:29;;;;;;;1.40;1.00;;;18.40;98.60;;;;;;6147829;23;20418;-86
2022/12/31 09:00:15;;;;;;;1.13;0.93;;;18.20;99.20;;;;;;6147900;23;20441;-88
2022/12/31 09:03:13;;;;;;;2.53;0.90;;;18.20;99.00;;;;;;6149164;23;20417;-83
2022/12/31 09:06:05;;;;;;;0.80;0.67;;;18.30;99.00;;;;;;6151388;23;20488;-87
2022/12/31 09:08:53;;;;;;;0.80;0.80;;;18.30;99.10;;;;;;6147278;23;20421;-87
2022/12/31 09:11:32;;;;;;;1.40;0.87;;;18.40;98.90;;;;;;6156437;23;20742;-84
2022/12/31 09:14:08;;;;;;;2.00;1.20;;;18.40;98.70;;;;;;6156891;23;20759;-87
2022/12/31 09:16:58;;;;;;;1.87;0.90;;;18.40;98.80;;;;;;6153145;23;20413;-85
2022/12/31 09:19:26;;;;;;;1.70;0.60;;;18.40;98.70;;;;;;6152970;23;20528;-86
2022/12/31 09:21:54;;;;;;;3.10;0.87;;;18.50;98.70;;;;;;6153574;23;20414;-87
2022/12/31 09:24:21;;;;;;;1.30;0.87;;;18.40;98.50;;;;;;6179982;23;20457;-86
2022/12/31 09:26:59;;;;;;;1.90;0.70;;;18.30;99.20;;;;;;6153810;23;20468;-87
2022/12/31 09:29:45;;;;;;;0.90;0.67;;;18.40;99.00;;;;;;6181018;23;20420;-86
2022/12/31 09:32:27;;;;;;;1.23;0.70;;;18.40;99.20;;;;;;6151326;23;20410;-87
2022/12/31 09:35:02;;;;;;;1.83;0.77;;;18.20;98.80;;;;;;6152980;23;20430;-86
2022/12/31 09:37:48;;;;;;;2.13;0.80;;;18.40;98.80;;;;;;6178831;23;20417;-85
2022/12/31 09:40:41;;;;;;;1.90;0.60;;;18.30;98.70;;;;;;6178951;23;20492;-85
2022/12/31 09:43:33;;;;;;;3.27;0.90;;;18.20;99.30;;;;;;6151658;23;20457;-85
2022/12/31 09:46:28;;;;;;;3.47;0.93;;;18.20;99.40;;;;;;6156259;23;20933;-84
2022/12/31 09:48:56;;;;;;;2.33;0.80;;;18.20;99.20;;;;;;6155635;23;20508;-86
2022/12/31 09:51:23;;;;;;;1.13;0.80;;;18.50;99.00;;;;;;6155642;23;20841;-86
2022/12/31 09:54:20;;;;;;;1.60;0.83;;;18.40;98.50;;;;;;6155226;23;20456;-86
2022/12/31 09:57:26;;;;;;;1.80;0.80;;;18.30;98.70;;;;;;6123327;23;20418;-85
2022/12/31 10:00:02;;;;;;;1.80;0.70;;;18.40;98.60;;;;;;6153424;23;20410;-85
2022/12/31 10:03:09;;;;;;;4.20;0.80;;;18.20;98.90;;;;;;6155021;23;20425;-86
2022/12/31 10:05:51;;;;;;;2.07;0.80;;;18.40;99.00;;;;;;6155176;23;20472;-86
2022/12/31 10:08:46;;;;;;;1.87;0.70;;;18.60;98.10;;;;;;6164274;23;20529;-86
2022/12/31 10:11:24;;;;;;;1.73;0.70;;;18.70;98.00;;;;;;6171376;23;20425;-83
2022/12/31 10:14:15;;;;;;;2.50;1.00;;;18.60;98.00;;;;;;6167507;23;20469;-88
2022/12/31 10:17:01;;;;;;;2.33;0.80;;;18.50;98.10;;;;;;6150023;23;20432;-85
2022/12/31 10:20:09;;;;;;;4.67;1.10;;;18.50;98.50;;;;;;6185148;23;20425;-84
2022/12/31 10:22:58;;;;;;;1.77;0.93;;;18.80;97.90;;;;;;6161713;23;20405;-85
2022/12/31 10:25:44;;;;;;;2.03;0.77;;;18.60;97.90;;;;;;6153395;23;20450;-85
2022/12/31 10:28:35;;;;;;;1.00;0.80;;;19.00;97.60;;;;;;6153450;23;20433;-86
2022/12/31 10:31:12;;;;;;;1.40;0.80;;;19.10;97.00;;;;;;6154397;23;20426;-85
2022/12/31 10:33:51;;;;;;;1.73;1.20;;;19.20;96.90;;;;;;6182874;23;20449;-85
2022/12/31 10:36:21;;;;;;;2.30;0.90;;;19.10;97.00;;;;;;6163850;23;20417;-87
2022/12/31 10:39:35;;;;;;;1.60;0.80;;;19.30;96.60;;;;;;6154021;23;20477;-85
2022/12/31 10:42:34;;;;;;;2.53;1.10;;;19.30;96.50;;;;;;6154543;23;20418;-86
2022/12/31 10:45:39;;;;;;;2.20;0.70;;;19.20;96.30;;;;;;6181310;23;20524;-85
2022/12/31 10:48:12;;;;;;;2.10;0.90;;;19.00;97.10;;;;;;6180657;23;20421;-84
2022/12/31 10:51:19;;;;;;;0.83;0.53;;;19.00;97.30;;;;;;6158231;23;20440;-84
2022/12/31 10:54:23;;;;;;;1.80;0.80;;;19.20;96.70;;;;;;6152325;23;20445;-87
2022/12/31 10:56:53;;;;;;;2.00;1.30;;;19.20;96.60;;;;;;6150993;23;20508;-86
2022/12/31 10:59:48;;;;;;;3.77;0.90;;;19.20;96.50;;;;;;6150797;23;20424;-86
2022/12/31 11:02:39;;;;;;;1.30;0.90;;;19.20;96.60;;;;;;6176562;23;20425;-86
2022/12/31 11:05:28;;;;;;;2.00;1.10;;;18.90;97.20;;;;;;6150864;23;20469;-86
2022/12/31 11:08:09;;;;;;;1.20;0.90;;;19.00;97.10;;;;;;6177937;23;20415;-88
2022/12/31 11:11:28;;;;;;;0.70;0.70;;;19.20;96.60;;;;;;6152271;23;20425;-86
2022/12/31 11:14:20;;;;;;;1.10;0.50;;;19.10;96.60;;;;;;6174980;23;20537;-85
2022/12/31 11:18:00;;;;;;;1.80;0.50;;;19.10;96.30;;;;;;6153113;23;20418;-85
2022/12/31 11:21:07;;;;;;;1.90;0.80;;;19.10;96.30;;;;;;6092967;23;20931;-84
2022/12/31 11:24:34;;;;;;;1.37;0.80;;;19.10;96.40;;;;;;6154676;23;20438;-85
2022/12/31 11:27:45;;;;;;;1.40;0.80;;;18.90;96.80;;;;;;6142585;23;20421;-84
2022/12/31 11:30:58;;;;;;;1.30;0.70;;;19.00;96.50;;;;;;6177054;23;20434;-86
2022/12/31 11:34:17;;;;;;;1.10;0.97;;;19.00;96.20;;;;;;6177276;23;20449;-87
2022/12/31 11:37:26;;;;;;;0.67;0.67;;;19.10;96.20;;;;;;6176873;23;20405;-86
2022/12/31 11:40:41;;;;;;;;;;;;;;;;;;;;;
2022/12/31 11:43:38;;;;;;;1.73;0.73;;;19.20;95.80;;;;;;6186382;23;20481;-85
2022/12/31 11:46:42;;;;;;;2.30;1.10;;;19.50;95.30;;;;;;6183805;23;20424;-84
2022/12/31 11:49:38;;;;;;;1.80;0.90;;;19.20;95.50;;;;;;6158937;23;20409;-87
2022/12/31 11:52:41;;;;;;;4.60;1.00;;;19.30;95.60;;;;;;6157229;23;20418;-85
2022/12/31 11:55:47;;;;;;;1.50;0.90;;;19.40;95.50;;;;;;6155774;23;20453;-84
2022/12/31 11:58:52;;;;;;;1.30;0.93;;;19.30;95.70;;;;;;6159614;23;20378;-85
2022/12/31 12:02:05;;;;;;;2.40;1.07;;;19.30;95.70;;;;;;6157146;23;20422;-84
2022/12/31 12:04:38;;;;;;;2.93;1.00;;;19.30;95.80;;;;;;6156324;23;20537;-83
2022/12/31 12:07:31;;;;;;;2.80;1.20;;;19.20;96.00;;;;;;6184318;23;20429;-86
2022/12/31 12:10:25;;;;;;;2.87;1.30;;;19.10;95.80;;;;;;6159139;23;20464;-86
2022/12/31 12:16:26;;;;;;;2.47;1.13;;;19.10;96.10;;;;;;6181799;23;20913;-86
2022/12/31 12:19:15;;;;;;;1.40;1.03;;;19.10;96.00;;;;;;6153540;23;20502;-84
2022/12/31 12:22:22;;;;;;;2.90;1.33;;;19.10;95.90;;;;;;6161419;23;20501;-84
2022/12/31 12:25:18;;;;;;;1.63;1.20;;;19.00;96.10;;;;;;6161359;23;20414;-85
2022/12/31 12:27:48;;;;;;;3.30;1.40;;;19.00;96.30;;;;;;6157225;23;20441;-82
2022/12/31 12:30:25;;;;;;;1.97;1.10;;;19.00;96.10;;;;;;6155215;23;20419;-85
2022/12/31 12:33:04;;;;;;;1.93;1.20;;;19.10;96.10;;;;;;6157337;23;20418;-86
2022/12/31 12:35:39;;;;;;;3.20;1.07;;;19.10;95.90;;;;;;6154886;23;20442;-86
2022/12/31 12:38:16;;;;;;;9.60;1.97;;;19.20;95.80;;;;;;6183923;23;20428;-85
2022/12/31 12:41:09;;;;;;;3.07;1.10;;;19.20;95.80;;;;;;6155285;23;20393;-85
2022/12/31 12:43:38;;;;;;;2.20;0.97;;;19.10;96.00;;;;;;6182178;23;20476;-85
2022/12/31 12:46:37;;;;;;;1.80;1.13;;;19.20;96.40;;;;;;6156304;23;20812;-86
2022/12/31 12:49:50;;;;;;;3.77;1.30;;;19.20;95.70;;;;;;6142230;23;20414;-86
2022/12/31 12:52:41;;;;;;;1.40;0.97;;;19.30;95.70;;;;;;6157988;23;20484;-85
2022/12/31 12:55:22;;;;;;;3.20;1.30;;;19.20;96.30;;;;;;6184672;23;20444;-89
2022/12/31 12:57:58;;;;;;;3.73;1.20;;;19.20;96.60;;;;;;6166715;23;20414;-87
2022/12/31 13:01:00;;;;;;;2.10;1.37;;;19.10;96.80;;;;;;6170112;23;20441;-89
2022/12/31 13:04:08;;;;;;;3.87;1.30;;;19.10;96.70;;;;;;6171178;23;20444;-85
2022/12/31 13:07:36;;;;;;;1.60;1.00;;;18.80;97.20;;;;;;6184405;23;20412;-84
2022/12/31 13:10:21;;;;;;;2.83;1.50;;;18.90;96.60;;;;;;6186537;23;20429;-84
2022/12/31 13:13:27;;;;;;;2.93;1.33;;;19.00;96.90;;;;;;6157681;23;20426;-86
2022/12/31 13:17:02;;;;;;;3.23;1.20;;;18.90;96.40;;;;;;6164298;23;20421;-85
2022/12/31 13:20:29;;;;;;;3.07;1.47;;;19.00;96.40;;;;;;6159325;23;20397;-87
2022/12/31 13:23:24;;;;;;;3.33;0.80;;;19.10;96.30;;;;;;6158694;23;20420;-85
2022/12/31 13:25:59;;;;;;;1.77;1.23;;;18.80;97.10;;;;;;6143053;23;20752;-83
2022/12/31 13:28:32;;;;;;;2.17;1.10;;;18.80;97.00;;;;;;6162515;23;20425;-85
2022/12/31 13:31:10;;;;;;;3.63;1.40;;;19.00;96.90;;;;;;6160413;23;20488;-84
2022/12/31 13:33:57;;;;;;;2.60;1.00;;;18.90;97.50;;;;;;6197380;23;20541;-85
2022/12/31 13:36:39;;;;;;;1.60;1.47;;;18.90;98.00;;;;;;6173962;23;20416;-86
2022/12/31 13:39:23;;;;;;;2.63;1.10;;;18.70;97.90;;;;;;6175488;23;20401;-86
2022/12/31 13:42:13;;;;;;;3.40;1.43;;;18.70;98.80;;;;;;6167830;23;20421;-85
2022/12/31 13:45:03;;;;;;;3.83;1.23;;;18.80;98.70;;;;;;6173905;23;20421;-87
2022/12/31 13:47:52;;;;;;;1.27;1.17;;;18.50;99.00;;;;;;6161244;23;20440;-84
2022/12/31 13:50:51;;;;;;;2.20;1.07;;;18.10;99.90;;;;;;6155100;23;20473;-84
2022/12/31 13:54:06;;;;;;;1.47;1.10;;;18.40;99.90;;;;;;6145427;23;20422;-86
2022/12/31 13:57:02;;;;;;;2.00;1.73;;;18.60;99.20;;;;;;6145093;23;20425;-85
2022/12/31 13:59:48;;;;;;;1.20;1.10;;;18.50;99.60;;;;;;6186286;23;20424;-86
2022/12/31 14:02:31;;;;;;;2.33;1.63;;;18.60;99.60;;;;;;6160066;23;20398;-85
2022/12/31 14:05:52;;;;;;;1.33;1.10;;;18.60;99.50;;;;;;6152855;23;20409;-86
2022/12/31 14:08:23;;;;;;;3.53;2.03;;;18.40;99.80;;;;;;6160302;23;20420;-88
2022/12/31 14:11:18;;;;;;;1.80;1.27;;;18.40;99.90;;;;;;6163267;23;20417;-84
2022/12/31 14:14:19;;;;;;;2.17;1.57;;;18.40;99.90;;;;;;6168446;23;20463;-88
2022/12/31 14:17:39;;;;;;;1.57;1.13;;;18.30;99.90;;;;;;6146099;23;20451;-87
2022/12/31 14:20:51;;;;;;;3.00;1.70;;;18.40;99.90;;;;;;6081419;23;20426;-83
2022/12/31 14:23:57;;;;;;;4.80;1.50;;;18.30;99.90;;;;;;6173361;23;20480;-85
2022/12/31 14:26:57;;;;;;;2.37;2.00;;;18.20;99.90;;;;;;6159066;23;20436;-85
2022/12/31 14:29:46;;;;;;;3.10;1.67;;;18.20;99.90;;;;;;6149981;23;20456;-87
2022/12/31 14:32:47;;;;;;;2.50;1.40;;;18.30;99.90;;;;;;6161452;23;20407;-86
2022/12/31 14:36:00;;;;;;;3.10;1.50;;;18.20;99.90;;;;;;6172303;23;20438;-85
2022/12/31 14:38:59;;;;;;;2.57;1.40;;;18.30;99.90;;;;;;6174627;23;20390;-88
2022/12/31 14:42:14;;;;;;;2.90;1.30;;;18.30;99.40;;;;;;6159526;23;20863;-87
2022/12/31 14:45:17;;;;;;;2.20;1.50;;;18.20;99.60;;;;;;6138827;23;20434;-85
2022/12/31 14:48:19;;;;;;;3.13;1.70;;;18.30;99.50;;;;;;6179594;23;20390;-88
2022/12/31 14:50:54;;;;;;;5.93;2.93;;;18.40;99.10;;;;;;6158252;23;20877;-88
2022/12/31 14:53:30;;;;;;;6.07;2.30;;;18.40;98.80;;;;;;6158687;23;20495;-87
2022/12/31 14:56:24;;;;;;;5.73;2.30;;;18.30;98.90;;;;;;6184282;23;20804;-83
2022/12/31 14:59:04;;;;;;;2.90;2.13;;;18.30;98.70;;;;;;6156755;23;20492;-84
2022/12/31 15:01:53;;;;;;;3.03;1.30;;;18.40;98.40;;;;;;6153321;23;20424;-85
2022/12/31 15:04:50;;;;;;;1.90;1.40;;;18.20;98.40;;;;;;6154668;23;20461;-84
2022/12/31 15:07:47;;;;;;;2.67;1.50;;;18.30;98.20;;;;;;6154370;23;20521;-84
2022/12/31 15:11:01;;;;;;;2.70;1.50;;;18.40;97.80;;;;;;6157552;23;20469;-85
2022/12/31 15:14:06;;;;;;;1.80;1.63;;;18.30;98.00;;;;;;6152631;23;20451;-87
2022/12/31 15:16:53;;;;;;;1.77;1.13;;;18.40;98.00;;;;;;6145047;23;20500;-86
2022/12/31 15:20:25;;;;;;;2.10;1.60;;;18.40;97.70;;;;;;6180059;23;20446;-86